sensor_id;sensor_type;location;lat;lon;timestamp;P1;durP1;ratioP1;P2;durP2;ratioP2
69008;SDS011;56065;52.472;13.380;2024-02-21T00:00:37;12.93;;;3.47;;
69008;SDS011;56065;52.472;13.380;2024-02-21T00:03:03;12.63;;;3.15;;
69008;SDS011;56065;52.472;13.380;2024-02-21T00:05:29;14.35;;;3.45;;
69008;SDS011;56065;52.472;13.380;2024-02-21T00:07:55;18.70;;;4.33;;
69008;SDS011;56065;52.472;13.380;2024-02-21T00:10:20;17.10;;;3.70;;
69008;SDS011;56065;52.472;13.380;2024-02-21T00:12:46;14.73;;;3.07;;
69008;SDS011;56065;52.472;13.380;2024-02-21T00:15:11;11.80;;;2.80;;
69008;SDS011;56065;52.472;13.380;2024-02-21T00:17:37;13.70;;;2.80;;
69008;SDS011;56065;52.472;13.380;2024-02-21T00:20:02;15.10;;;2.97;;
69008;SDS011;56065;52.472;13.380;2024-02-21T00:22:28;11.20;;;2.38;;
69008;SDS011;56065;52.472;13.380;2024-02-21T00:24:56;17.23;;;3.10;;
69008;SDS011;56065;52.472;13.380;2024-02-21T00:27:23;13.57;;;2.67;;
69008;SDS011;56065;52.472;13.380;2024-02-21T00:29:48;14.20;;;2.95;;
69008;SDS011;56065;52.472;13.380;2024-02-21T00:32:14;16.30;;;4.37;;
69008;SDS011;56065;52.472;13.380;2024-02-21T00:34:39;11.63;;;2.70;;
69008;SDS011;56065;52.472;13.380;2024-02-21T00:37:04;12.13;;;3.43;;
69008;SDS011;56065;52.472;13.380;2024-02-21T00:39:30;13.38;;;3.75;;
69008;SDS011;56065;52.472;13.380;2024-02-21T00:41:56;13.60;;;3.13;;
69008;SDS011;56065;52.472;13.380;2024-02-21T00:44:21;13.67;;;2.90;;
69008;SDS011;56065;52.472;13.380;2024-02-21T00:46:46;12.05;;;2.33;;
69008;SDS011;56065;52.472;13.380;2024-02-21T00:49:12;19.83;;;2.67;;
69008;SDS011;56065;52.472;13.380;2024-02-21T00:51:37;15.17;;;2.50;;
69008;SDS011;56065;52.472;13.380;2024-02-21T00:54:03;12.17;;;2.87;;
69008;SDS011;56065;52.472;13.380;2024-02-21T00:56:28;17.47;;;3.40;;
69008;SDS011;56065;52.472;13.380;2024-02-21T00:58:54;16.52;;;2.60;;
69008;SDS011;56065;52.472;13.380;2024-02-21T01:01:23;16.50;;;2.73;;
69008;SDS011;56065;52.472;13.380;2024-02-21T01:03:50;9.63;;;2.73;;
69008;SDS011;56065;52.472;13.380;2024-02-21T01:06:16;15.05;;;3.45;;
69008;SDS011;56065;52.472;13.380;2024-02-21T01:08:41;10.30;;;2.43;;
69008;SDS011;56065;52.472;13.380;2024-02-21T01:11:06;10.43;;;2.13;;
69008;SDS011;56065;52.472;13.380;2024-02-21T01:13:32;12.23;;;2.70;;
69008;SDS011;56065;52.472;13.380;2024-02-21T01:15:58;12.23;;;2.30;;
69008;SDS011;56065;52.472;13.380;2024-02-21T01:18:23;10.77;;;2.50;;
69008;SDS011;56065;52.472;13.380;2024-02-21T01:20:48;13.87;;;2.80;;
69008;SDS011;56065;52.472;13.380;2024-02-21T01:23:14;13.13;;;2.72;;
69008;SDS011;56065;52.472;13.380;2024-02-21T01:25:39;13.50;;;2.80;;
69008;SDS011;56065;52.472;13.380;2024-02-21T01:28:04;14.77;;;2.80;;
69008;SDS011;56065;52.472;13.380;2024-02-21T01:30:30;14.10;;;3.10;;
69008;SDS011;56065;52.472;13.380;2024-02-21T01:32:55;13.57;;;3.10;;
69008;SDS011;56065;52.472;13.380;2024-02-21T01:35:21;11.93;;;2.70;;
69008;SDS011;56065;52.472;13.380;2024-02-21T01:37:46;17.63;;;2.80;;
69008;SDS011;56065;52.472;13.380;2024-02-21T01:40:11;13.37;;;2.47;;
69008;SDS011;56065;52.472;13.380;2024-02-21T01:42:40;17.87;;;2.57;;
69008;SDS011;56065;52.472;13.380;2024-02-21T01:45:06;12.93;;;2.85;;
69008;SDS011;56065;52.472;13.380;2024-02-21T01:47:31;14.57;;;2.53;;
69008;SDS011;56065;52.472;13.380;2024-02-21T01:49:57;12.48;;;2.90;;
69008;SDS011;56065;52.472;13.380;2024-02-21T01:52:22;10.63;;;2.77;;
69008;SDS011;56065;52.472;13.380;2024-02-21T01:54:48;13.30;;;2.97;;
69008;SDS011;56065;52.472;13.380;2024-02-21T01:57:13;15.35;;;2.90;;
69008;SDS011;56065;52.472;13.380;2024-02-21T01:59:39;13.33;;;2.80;;
69008;SDS011;56065;52.472;13.380;2024-02-21T02:02:05;11.07;;;2.97;;
69008;SDS011;56065;52.472;13.380;2024-02-21T02:04:30;15.80;;;2.53;;
69008;SDS011;56065;52.472;13.380;2024-02-21T02:06:56;12.20;;;2.65;;
69008;SDS011;56065;52.472;13.380;2024-02-21T02:09:24;16.10;;;3.37;;
69008;SDS011;56065;52.472;13.380;2024-02-21T02:11:50;18.50;;;4.05;;
69008;SDS011;56065;52.472;13.380;2024-02-21T02:14:16;12.43;;;2.77;;
69008;SDS011;56065;52.472;13.380;2024-02-21T02:16:41;13.83;;;3.00;;
69008;SDS011;56065;52.472;13.380;2024-02-21T02:19:06;11.63;;;2.90;;
69008;SDS011;56065;52.472;13.380;2024-02-21T02:21:37;14.55;;;2.70;;
69008;SDS011;56065;52.472;13.380;2024-02-21T02:24:06;12.60;;;2.77;;
69008;SDS011;56065;52.472;13.380;2024-02-21T02:26:32;11.60;;;3.25;;
69008;SDS011;56065;52.472;13.380;2024-02-21T02:28:57;12.13;;;2.83;;
69008;SDS011;56065;52.472;13.380;2024-02-21T02:31:23;16.13;;;3.53;;
69008;SDS011;56065;52.472;13.380;2024-02-21T02:33:48;19.37;;;4.03;;
69008;SDS011;56065;52.472;13.380;2024-02-21T02:36:13;19.27;;;3.10;;
69008;SDS011;56065;52.472;13.380;2024-02-21T02:38:39;12.67;;;2.80;;
69008;SDS011;56065;52.472;13.380;2024-02-21T02:41:04;11.37;;;2.47;;
69008;SDS011;56065;52.472;13.380;2024-02-21T02:43:30;10.50;;;2.40;;
69008;SDS011;56065;52.472;13.380;2024-02-21T02:45:56;16.63;;;3.67;;
69008;SDS011;56065;52.472;13.380;2024-02-21T02:48:21;12.67;;;2.83;;
69008;SDS011;56065;52.472;13.380;2024-02-21T02:50:47;14.27;;;2.97;;
69008;SDS011;56065;52.472;13.380;2024-02-21T02:53:12;18.63;;;3.83;;
69008;SDS011;56065;52.472;13.380;2024-02-21T02:55:38;16.33;;;2.67;;
69008;SDS011;56065;52.472;13.380;2024-02-21T02:58:03;14.90;;;3.10;;
69008;SDS011;56065;52.472;13.380;2024-02-21T03:00:28;11.77;;;3.20;;
69008;SDS011;56065;52.472;13.380;2024-02-21T03:02:54;16.75;;;3.20;;
69008;SDS011;56065;52.472;13.380;2024-02-21T03:05:19;12.27;;;2.63;;
69008;SDS011;56065;52.472;13.380;2024-02-21T03:07:46;15.33;;;3.50;;
69008;SDS011;56065;52.472;13.380;2024-02-21T03:10:12;13.15;;;3.00;;
69008;SDS011;56065;52.472;13.380;2024-02-21T03:12:38;13.40;;;3.58;;
69008;SDS011;56065;52.472;13.380;2024-02-21T03:15:03;12.30;;;2.97;;
69008;SDS011;56065;52.472;13.380;2024-02-21T03:17:30;14.85;;;3.58;;
69008;SDS011;56065;52.472;13.380;2024-02-21T03:19:56;26.70;;;3.67;;
69008;SDS011;56065;52.472;13.380;2024-02-21T03:22:22;14.77;;;3.10;;
69008;SDS011;56065;52.472;13.380;2024-02-21T03:24:47;18.02;;;3.53;;
69008;SDS011;56065;52.472;13.380;2024-02-21T03:27:13;15.20;;;3.33;;
69008;SDS011;56065;52.472;13.380;2024-02-21T03:29:38;17.77;;;3.53;;
69008;SDS011;56065;52.472;13.380;2024-02-21T03:32:03;18.73;;;3.70;;
69008;SDS011;56065;52.472;13.380;2024-02-21T03:34:29;16.63;;;3.70;;
69008;SDS011;56065;52.472;13.380;2024-02-21T03:36:54;22.77;;;3.67;;
69008;SDS011;56065;52.472;13.380;2024-02-21T03:39:19;16.93;;;3.50;;
69008;SDS011;56065;52.472;13.380;2024-02-21T03:41:46;17.10;;;4.90;;
69008;SDS011;56065;52.472;13.380;2024-02-21T03:44:11;17.30;;;4.23;;
69008;SDS011;56065;52.472;13.380;2024-02-21T03:46:37;17.33;;;3.67;;
69008;SDS011;56065;52.472;13.380;2024-02-21T03:49:02;18.53;;;4.43;;
69008;SDS011;56065;52.472;13.380;2024-02-21T03:51:27;24.33;;;4.50;;
69008;SDS011;56065;52.472;13.380;2024-02-21T03:53:53;18.90;;;3.90;;
69008;SDS011;56065;52.472;13.380;2024-02-21T03:56:18;14.03;;;3.80;;
69008;SDS011;56065;52.472;13.380;2024-02-21T03:58:43;17.37;;;4.17;;
69008;SDS011;56065;52.472;13.380;2024-02-21T04:01:09;16.15;;;3.95;;
69008;SDS011;56065;52.472;13.380;2024-02-21T04:03:34;19.77;;;4.20;;
69008;SDS011;56065;52.472;13.380;2024-02-21T04:06:00;16.67;;;3.97;;
69008;SDS011;56065;52.472;13.380;2024-02-21T04:08:25;15.53;;;3.77;;
69008;SDS011;56065;52.472;13.380;2024-02-21T04:10:51;16.43;;;3.97;;
69008;SDS011;56065;52.472;13.380;2024-02-21T04:13:16;19.35;;;4.32;;
69008;SDS011;56065;52.472;13.380;2024-02-21T04:15:42;20.90;;;4.63;;
69008;SDS011;56065;52.472;13.380;2024-02-21T04:18:07;15.47;;;3.20;;
69008;SDS011;56065;52.472;13.380;2024-02-21T04:20:33;14.10;;;3.63;;
69008;SDS011;56065;52.472;13.380;2024-02-21T04:22:59;20.25;;;4.28;;
69008;SDS011;56065;52.472;13.380;2024-02-21T04:25:25;14.73;;;4.07;;
69008;SDS011;56065;52.472;13.380;2024-02-21T04:27:51;11.38;;;3.80;;
69008;SDS011;56065;52.472;13.380;2024-02-21T04:30:16;20.00;;;3.87;;
69008;SDS011;56065;52.472;13.380;2024-02-21T04:32:42;14.93;;;3.30;;
69008;SDS011;56065;52.472;13.380;2024-02-21T04:35:08;15.57;;;3.33;;
69008;SDS011;56065;52.472;13.380;2024-02-21T04:37:33;14.35;;;3.60;;
69008;SDS011;56065;52.472;13.380;2024-02-21T04:39:59;18.83;;;4.20;;
69008;SDS011;56065;52.472;13.380;2024-02-21T04:42:24;15.63;;;4.47;;
69008;SDS011;56065;52.472;13.380;2024-02-21T04:44:50;13.90;;;3.72;;
69008;SDS011;56065;52.472;13.380;2024-02-21T04:47:15;16.53;;;3.60;;
69008;SDS011;56065;52.472;13.380;2024-02-21T04:49:40;20.60;;;4.10;;
69008;SDS011;56065;52.472;13.380;2024-02-21T04:52:06;18.37;;;4.50;;
69008;SDS011;56065;52.472;13.380;2024-02-21T04:54:31;20.00;;;3.67;;
69008;SDS011;56065;52.472;13.380;2024-02-21T04:56:56;16.07;;;3.97;;
69008;SDS011;56065;52.472;13.380;2024-02-21T04:59:22;17.13;;;4.07;;
69008;SDS011;56065;52.472;13.380;2024-02-21T05:01:47;16.75;;;4.32;;
69008;SDS011;56065;52.472;13.380;2024-02-21T05:04:13;12.30;;;3.23;;
69008;SDS011;56065;52.472;13.380;2024-02-21T05:06:38;16.07;;;3.50;;
69008;SDS011;56065;52.472;13.380;2024-02-21T05:09:04;18.60;;;4.20;;
69008;SDS011;56065;52.472;13.380;2024-02-21T05:11:30;20.73;;;4.17;;
69008;SDS011;56065;52.472;13.380;2024-02-21T05:13:56;16.30;;;4.00;;
69008;SDS011;56065;52.472;13.380;2024-02-21T05:16:21;18.47;;;4.20;;
69008;SDS011;56065;52.472;13.380;2024-02-21T05:18:46;14.37;;;3.80;;
69008;SDS011;56065;52.472;13.380;2024-02-21T05:21:12;16.67;;;4.53;;
69008;SDS011;56065;52.472;13.380;2024-02-21T05:23:38;16.30;;;4.00;;
69008;SDS011;56065;52.472;13.380;2024-02-21T05:26:04;17.20;;;4.15;;
69008;SDS011;56065;52.472;13.380;2024-02-21T05:28:30;15.52;;;4.53;;
69008;SDS011;56065;52.472;13.380;2024-02-21T05:30:56;15.30;;;3.97;;
69008;SDS011;56065;52.472;13.380;2024-02-21T05:33:21;18.10;;;4.67;;
69008;SDS011;56065;52.472;13.380;2024-02-21T05:35:47;16.10;;;4.03;;
69008;SDS011;56065;52.472;13.380;2024-02-21T05:38:15;17.02;;;3.97;;
69008;SDS011;56065;52.472;13.380;2024-02-21T05:40:41;16.27;;;4.17;;
69008;SDS011;56065;52.472;13.380;2024-02-21T05:43:07;19.40;;;4.10;;
69008;SDS011;56065;52.472;13.380;2024-02-21T05:45:33;18.45;;;4.25;;
69008;SDS011;56065;52.472;13.380;2024-02-21T05:47:58;13.93;;;3.57;;
69008;SDS011;56065;52.472;13.380;2024-02-21T05:50:24;14.32;;;3.88;;
69008;SDS011;56065;52.472;13.380;2024-02-21T05:52:56;23.30;;;4.83;;
69008;SDS011;56065;52.472;13.380;2024-02-21T05:55:22;17.02;;;4.53;;
69008;SDS011;56065;52.472;13.380;2024-02-21T05:57:47;19.63;;;4.60;;
69008;SDS011;56065;52.472;13.380;2024-02-21T06:00:13;14.67;;;4.37;;
69008;SDS011;56065;52.472;13.380;2024-02-21T06:02:39;21.00;;;4.82;;
69008;SDS011;56065;52.472;13.380;2024-02-21T06:05:05;17.10;;;3.78;;
69008;SDS011;56065;52.472;13.380;2024-02-21T06:07:32;15.32;;;3.50;;
69008;SDS011;56065;52.472;13.380;2024-02-21T06:09:58;19.83;;;4.27;;
69008;SDS011;56065;52.472;13.380;2024-02-21T06:12:23;15.97;;;3.53;;
69008;SDS011;56065;52.472;13.380;2024-02-21T06:14:48;16.23;;;4.10;;
69008;SDS011;56065;52.472;13.380;2024-02-21T06:17:14;18.63;;;3.60;;
69008;SDS011;56065;52.472;13.380;2024-02-21T06:19:39;19.47;;;4.57;;
69008;SDS011;56065;52.472;13.380;2024-02-21T06:22:06;14.68;;;4.45;;
69008;SDS011;56065;52.472;13.380;2024-02-21T06:24:33;17.33;;;3.97;;
69008;SDS011;56065;52.472;13.380;2024-02-21T06:26:58;11.93;;;3.78;;
69008;SDS011;56065;52.472;13.380;2024-02-21T06:29:24;14.90;;;3.60;;
69008;SDS011;56065;52.472;13.380;2024-02-21T06:31:49;14.07;;;4.60;;
69008;SDS011;56065;52.472;13.380;2024-02-21T06:34:14;12.38;;;4.07;;
69008;SDS011;56065;52.472;13.380;2024-02-21T06:36:40;14.27;;;3.57;;
69008;SDS011;56065;52.472;13.380;2024-02-21T06:39:05;15.77;;;3.70;;
69008;SDS011;56065;52.472;13.380;2024-02-21T06:41:32;12.10;;;3.67;;
69008;SDS011;56065;52.472;13.380;2024-02-21T06:43:59;14.13;;;4.17;;
69008;SDS011;56065;52.472;13.380;2024-02-21T06:46:27;16.42;;;4.18;;
69008;SDS011;56065;52.472;13.380;2024-02-21T06:48:58;14.80;;;4.77;;
69008;SDS011;56065;52.472;13.380;2024-02-21T06:51:25;19.80;;;5.10;;
69008;SDS011;56065;52.472;13.380;2024-02-21T06:53:51;15.43;;;4.72;;
69008;SDS011;56065;52.472;13.380;2024-02-21T06:56:17;15.70;;;4.33;;
69008;SDS011;56065;52.472;13.380;2024-02-21T06:58:42;15.63;;;4.03;;
69008;SDS011;56065;52.472;13.380;2024-02-21T07:01:07;15.00;;;4.77;;
69008;SDS011;56065;52.472;13.380;2024-02-21T07:03:33;17.20;;;4.23;;
69008;SDS011;56065;52.472;13.380;2024-02-21T07:05:58;13.50;;;3.93;;
69008;SDS011;56065;52.472;13.380;2024-02-21T07:08:24;13.27;;;3.90;;
69008;SDS011;56065;52.472;13.380;2024-02-21T07:10:49;15.50;;;4.13;;
69008;SDS011;56065;52.472;13.380;2024-02-21T07:13:14;14.87;;;4.53;;
69008;SDS011;56065;52.472;13.380;2024-02-21T07:15:40;22.70;;;4.70;;
69008;SDS011;56065;52.472;13.380;2024-02-21T07:18:06;12.17;;;3.93;;
69008;SDS011;56065;52.472;13.380;2024-02-21T07:20:32;18.10;;;5.07;;
69008;SDS011;56065;52.472;13.380;2024-02-21T07:23:02;15.98;;;4.35;;
69008;SDS011;56065;52.472;13.380;2024-02-21T07:25:28;18.13;;;4.40;;
69008;SDS011;56065;52.472;13.380;2024-02-21T07:27:54;15.13;;;4.37;;
69008;SDS011;56065;52.472;13.380;2024-02-21T07:30:19;18.70;;;4.00;;
69008;SDS011;56065;52.472;13.380;2024-02-21T07:32:45;17.83;;;4.00;;
69008;SDS011;56065;52.472;13.380;2024-02-21T07:35:10;14.17;;;3.83;;
69008;SDS011;56065;52.472;13.380;2024-02-21T07:37:36;17.80;;;4.15;;
69008;SDS011;56065;52.472;13.380;2024-02-21T07:40:03;18.08;;;3.95;;
69008;SDS011;56065;52.472;13.380;2024-02-21T07:42:30;14.18;;;4.25;;
69008;SDS011;56065;52.472;13.380;2024-02-21T07:44:55;12.70;;;3.30;;
69008;SDS011;56065;52.472;13.380;2024-02-21T07:47:21;16.27;;;3.83;;
69008;SDS011;56065;52.472;13.380;2024-02-21T07:49:47;11.27;;;3.15;;
69008;SDS011;56065;52.472;13.380;2024-02-21T07:52:13;14.25;;;3.97;;
69008;SDS011;56065;52.472;13.380;2024-02-21T07:54:39;17.20;;;4.27;;
69008;SDS011;56065;52.472;13.380;2024-02-21T07:57:04;14.10;;;3.97;;
69008;SDS011;56065;52.472;13.380;2024-02-21T07:59:30;15.70;;;4.03;;
69008;SDS011;56065;52.472;13.380;2024-02-21T08:01:56;11.85;;;3.47;;
69008;SDS011;56065;52.472;13.380;2024-02-21T08:04:22;11.77;;;3.03;;
69008;SDS011;56065;52.472;13.380;2024-02-21T08:06:51;15.17;;;3.97;;
69008;SDS011;56065;52.472;13.380;2024-02-21T08:09:26;13.45;;;3.10;;
69008;SDS011;56065;52.472;13.380;2024-02-21T08:11:51;13.87;;;4.20;;
69008;SDS011;56065;52.472;13.380;2024-02-21T08:14:17;17.10;;;4.40;;
69008;SDS011;56065;52.472;13.380;2024-02-21T08:16:42;13.90;;;3.25;;
69008;SDS011;56065;52.472;13.380;2024-02-21T08:19:08;11.57;;;3.37;;
69008;SDS011;56065;52.472;13.380;2024-02-21T08:21:34;12.65;;;3.95;;
69008;SDS011;56065;52.472;13.380;2024-02-21T08:23:59;13.37;;;3.60;;
69008;SDS011;56065;52.472;13.380;2024-02-21T08:26:24;11.07;;;3.60;;
69008;SDS011;56065;52.472;13.380;2024-02-21T08:28:53;13.05;;;4.28;;
69008;SDS011;56065;52.472;13.380;2024-02-21T08:31:19;14.80;;;4.37;;
69008;SDS011;56065;52.472;13.380;2024-02-21T08:33:45;16.10;;;4.57;;
69008;SDS011;56065;52.472;13.380;2024-02-21T08:36:17;14.33;;;3.63;;
69008;SDS011;56065;52.472;13.380;2024-02-21T08:38:45;14.63;;;3.80;;
69008;SDS011;56065;52.472;13.380;2024-02-21T08:41:10;13.50;;;4.37;;
69008;SDS011;56065;52.472;13.380;2024-02-21T08:43:37;17.45;;;4.97;;
69008;SDS011;56065;52.472;13.380;2024-02-21T08:46:02;15.73;;;4.73;;
69008;SDS011;56065;52.472;13.380;2024-02-21T08:48:28;12.05;;;4.00;;
69008;SDS011;56065;52.472;13.380;2024-02-21T08:50:53;12.93;;;4.60;;
69008;SDS011;56065;52.472;13.380;2024-02-21T08:53:19;22.20;;;5.03;;
69008;SDS011;56065;52.472;13.380;2024-02-21T08:55:45;15.47;;;4.17;;
69008;SDS011;56065;52.472;13.380;2024-02-21T08:58:10;13.60;;;4.23;;
69008;SDS011;56065;52.472;13.380;2024-02-21T09:00:36;15.38;;;4.97;;
69008;SDS011;56065;52.472;13.380;2024-02-21T09:03:01;18.47;;;5.30;;
69008;SDS011;56065;52.472;13.380;2024-02-21T09:05:27;18.67;;;4.95;;
69008;SDS011;56065;52.472;13.380;2024-02-21T09:07:53;20.60;;;5.33;;
69008;SDS011;56065;52.472;13.380;2024-02-21T09:10:18;17.93;;;4.10;;
69008;SDS011;56065;52.472;13.380;2024-02-21T09:12:44;14.47;;;4.73;;
69008;SDS011;56065;52.472;13.380;2024-02-21T09:15:09;18.27;;;4.65;;
69008;SDS011;56065;52.472;13.380;2024-02-21T09:17:35;15.30;;;4.53;;
69008;SDS011;56065;52.472;13.380;2024-02-21T09:20:01;16.60;;;5.30;;
69008;SDS011;56065;52.472;13.380;2024-02-21T09:22:28;16.00;;;5.47;;
69008;SDS011;56065;52.472;13.380;2024-02-21T09:24:53;16.13;;;5.20;;
69008;SDS011;56065;52.472;13.380;2024-02-21T09:27:19;15.97;;;4.63;;
69008;SDS011;56065;52.472;13.380;2024-02-21T09:29:44;16.60;;;5.03;;
69008;SDS011;56065;52.472;13.380;2024-02-21T09:32:09;11.23;;;4.37;;
69008;SDS011;56065;52.472;13.380;2024-02-21T09:34:35;13.47;;;4.43;;
69008;SDS011;56065;52.472;13.380;2024-02-21T09:37:00;17.17;;;6.03;;
69008;SDS011;56065;52.472;13.380;2024-02-21T09:39:25;13.70;;;5.27;;
69008;SDS011;56065;52.472;13.380;2024-02-21T09:41:53;14.47;;;4.80;;
69008;SDS011;56065;52.472;13.380;2024-02-21T09:44:23;17.77;;;4.68;;
69008;SDS011;56065;52.472;13.380;2024-02-21T09:46:54;14.40;;;4.60;;
69008;SDS011;56065;52.472;13.380;2024-02-21T09:49:31;20.35;;;4.68;;
69008;SDS011;56065;52.472;13.380;2024-02-21T09:52:04;14.80;;;4.70;;
69008;SDS011;56065;52.472;13.380;2024-02-21T09:54:30;12.57;;;4.43;;
69008;SDS011;56065;52.472;13.380;2024-02-21T09:57:02;12.82;;;4.05;;
69008;SDS011;56065;52.472;13.380;2024-02-21T09:59:28;15.03;;;4.97;;
69008;SDS011;56065;52.472;13.380;2024-02-21T10:01:56;13.70;;;4.90;;
69008;SDS011;56065;52.472;13.380;2024-02-21T10:04:21;11.23;;;4.73;;
69008;SDS011;56065;52.472;13.380;2024-02-21T10:06:47;18.02;;;5.28;;
69008;SDS011;56065;52.472;13.380;2024-02-21T10:09:25;17.30;;;5.50;;
69008;SDS011;56065;52.472;13.380;2024-02-21T10:11:55;14.20;;;4.60;;
69008;SDS011;56065;52.472;13.380;2024-02-21T10:14:21;10.80;;;4.45;;
69008;SDS011;56065;52.472;13.380;2024-02-21T10:16:56;12.53;;;3.73;;
69008;SDS011;56065;52.472;13.380;2024-02-21T10:19:24;12.05;;;4.15;;
69008;SDS011;56065;52.472;13.380;2024-02-21T10:24:28;13.52;;;4.40;;
69008;SDS011;56065;52.472;13.380;2024-02-21T10:27:04;18.48;;;4.47;;
69008;SDS011;56065;52.472;13.380;2024-02-21T10:29:33;11.53;;;4.00;;
69008;SDS011;56065;52.472;13.380;2024-02-21T10:34:34;15.27;;;4.60;;
69008;SDS011;56065;52.472;13.380;2024-02-21T10:37:03;13.07;;;4.20;;
69008;SDS011;56065;52.472;13.380;2024-02-21T10:39:33;16.52;;;4.40;;
69008;SDS011;56065;52.472;13.380;2024-02-21T10:42:00;14.73;;;4.33;;
69008;SDS011;56065;52.472;13.380;2024-02-21T10:44:30;12.80;;;4.32;;
69008;SDS011;56065;52.472;13.380;2024-02-21T10:46:57;14.23;;;4.70;;
69008;SDS011;56065;52.472;13.380;2024-02-21T10:49:23;15.68;;;4.75;;
69008;SDS011;56065;52.472;13.380;2024-02-21T10:51:50;10.13;;;3.90;;
69008;SDS011;56065;52.472;13.380;2024-02-21T10:56:58;14.40;;;4.78;;
69008;SDS011;56065;52.472;13.380;2024-02-21T10:59:25;16.63;;;4.70;;
69008;SDS011;56065;52.472;13.380;2024-02-21T11:01:52;12.18;;;4.28;;
69008;SDS011;56065;52.472;13.380;2024-02-21T11:04:17;10.77;;;4.10;;
69008;SDS011;56065;52.472;13.380;2024-02-21T11:06:43;12.48;;;4.07;;
69008;SDS011;56065;52.472;13.380;2024-02-21T11:09:10;13.70;;;4.43;;
69008;SDS011;56065;52.472;13.380;2024-02-21T11:11:38;11.35;;;3.90;;
69008;SDS011;56065;52.472;13.380;2024-02-21T11:16:40;15.13;;;3.60;;
69008;SDS011;56065;52.472;13.380;2024-02-21T11:19:07;10.90;;;3.60;;
69008;SDS011;56065;52.472;13.380;2024-02-21T11:21:35;14.43;;;4.50;;
69008;SDS011;56065;52.472;13.380;2024-02-21T11:24:02;14.80;;;4.25;;
69008;SDS011;56065;52.472;13.380;2024-02-21T11:26:29;13.55;;;3.63;;
69008;SDS011;56065;52.472;13.380;2024-02-21T11:28:56;9.77;;;3.58;;
69008;SDS011;56065;52.472;13.380;2024-02-21T11:31:26;11.67;;;3.73;;
69008;SDS011;56065;52.472;13.380;2024-02-21T11:33:54;10.27;;;3.40;;
69008;SDS011;56065;52.472;13.380;2024-02-21T11:36:26;8.52;;;2.88;;
69008;SDS011;56065;52.472;13.380;2024-02-21T11:38:52;8.83;;;3.10;;
69008;SDS011;56065;52.472;13.380;2024-02-21T11:41:20;10.32;;;3.28;;
69008;SDS011;56065;52.472;13.380;2024-02-21T11:43:46;13.55;;;3.08;;
69008;SDS011;56065;52.472;13.380;2024-02-21T11:46:14;11.47;;;3.80;;
69008;SDS011;56065;52.472;13.380;2024-02-21T11:48:39;13.05;;;3.45;;
69008;SDS011;56065;52.472;13.380;2024-02-21T11:51:06;10.50;;;3.50;;
69008;SDS011;56065;52.472;13.380;2024-02-21T11:53:31;8.43;;;3.10;;
69008;SDS011;56065;52.472;13.380;2024-02-21T11:55:58;8.57;;;3.00;;
69008;SDS011;56065;52.472;13.380;2024-02-21T11:58:23;7.57;;;2.85;;
69008;SDS011;56065;52.472;13.380;2024-02-21T12:00:50;11.90;;;2.70;;
69008;SDS011;56065;52.472;13.380;2024-02-21T12:03:15;7.93;;;2.93;;
69008;SDS011;56065;52.472;13.380;2024-02-21T12:05:41;8.80;;;2.50;;
69008;SDS011;56065;52.472;13.380;2024-02-21T12:08:06;9.38;;;2.60;;
69008;SDS011;56065;52.472;13.380;2024-02-21T12:10:33;9.07;;;2.50;;
69008;SDS011;56065;52.472;13.380;2024-02-21T12:13:07;6.93;;;2.35;;
69008;SDS011;56065;52.472;13.380;2024-02-21T12:15:33;6.82;;;2.22;;
69008;SDS011;56065;52.472;13.380;2024-02-21T12:17:59;7.37;;;2.43;;
69008;SDS011;56065;52.472;13.380;2024-02-21T12:20:25;9.48;;;2.65;;
69008;SDS011;56065;52.472;13.380;2024-02-21T12:22:50;6.03;;;2.25;;
69008;SDS011;56065;52.472;13.380;2024-02-21T12:25:17;7.37;;;2.13;;
69008;SDS011;56065;52.472;13.380;2024-02-21T12:27:43;5.47;;;1.95;;
69008;SDS011;56065;52.472;13.380;2024-02-21T12:30:09;7.40;;;2.10;;
69008;SDS011;56065;52.472;13.380;2024-02-21T12:32:35;7.43;;;2.38;;
69008;SDS011;56065;52.472;13.380;2024-02-21T12:35:01;8.30;;;2.75;;
69008;SDS011;56065;52.472;13.380;2024-02-21T12:37:27;7.50;;;2.25;;
69008;SDS011;56065;52.472;13.380;2024-02-21T12:39:52;7.50;;;2.13;;
69008;SDS011;56065;52.472;13.380;2024-02-21T12:42:18;18.63;;;5.50;;
69008;SDS011;56065;52.472;13.380;2024-02-21T12:44:43;11.40;;;3.40;;
69008;SDS011;56065;52.472;13.380;2024-02-21T12:47:09;12.73;;;4.03;;
69008;SDS011;56065;52.472;13.380;2024-02-21T12:49:34;10.20;;;2.80;;
69008;SDS011;56065;52.472;13.380;2024-02-21T12:52:00;7.33;;;1.90;;
69008;SDS011;56065;52.472;13.380;2024-02-21T12:54:25;6.23;;;1.97;;
69008;SDS011;56065;52.472;13.380;2024-02-21T12:56:51;6.47;;;2.15;;
69008;SDS011;56065;52.472;13.380;2024-02-21T12:59:16;8.70;;;2.10;;
69008;SDS011;56065;52.472;13.380;2024-02-21T13:01:42;7.87;;;2.10;;
69008;SDS011;56065;52.472;13.380;2024-02-21T13:04:07;7.73;;;2.23;;
69008;SDS011;56065;52.472;13.380;2024-02-21T13:06:32;8.13;;;2.50;;
69008;SDS011;56065;52.472;13.380;2024-02-21T13:08:58;7.90;;;2.47;;
69008;SDS011;56065;52.472;13.380;2024-02-21T13:11:24;10.40;;;2.20;;
69008;SDS011;56065;52.472;13.380;2024-02-21T13:13:52;8.70;;;2.40;;
69008;SDS011;56065;52.472;13.380;2024-02-21T13:16:18;9.85;;;2.30;;
69008;SDS011;56065;52.472;13.380;2024-02-21T13:18:43;8.87;;;2.20;;
69008;SDS011;56065;52.472;13.380;2024-02-21T13:21:10;6.45;;;2.00;;
69008;SDS011;56065;52.472;13.380;2024-02-21T13:23:35;10.95;;;2.72;;
69008;SDS011;56065;52.472;13.380;2024-02-21T13:26:01;8.87;;;2.70;;
69008;SDS011;56065;52.472;13.380;2024-02-21T13:28:26;10.30;;;2.53;;
69008;SDS011;56065;52.472;13.380;2024-02-21T13:30:52;8.60;;;2.55;;
69008;SDS011;56065;52.472;13.380;2024-02-21T13:33:18;9.77;;;2.60;;
69008;SDS011;56065;52.472;13.380;2024-02-21T13:35:43;6.73;;;2.10;;
69008;SDS011;56065;52.472;13.380;2024-02-21T13:38:09;14.82;;;2.78;;
69008;SDS011;56065;52.472;13.380;2024-02-21T13:40:35;10.30;;;2.65;;
69008;SDS011;56065;52.472;13.380;2024-02-21T13:43:00;9.00;;;2.70;;
69008;SDS011;56065;52.472;13.380;2024-02-21T13:45:26;7.57;;;2.30;;
69008;SDS011;56065;52.472;13.380;2024-02-21T13:47:51;9.30;;;2.90;;
69008;SDS011;56065;52.472;13.380;2024-02-21T13:50:17;8.30;;;2.50;;
69008;SDS011;56065;52.472;13.380;2024-02-21T13:52:43;12.68;;;2.50;;
69008;SDS011;56065;52.472;13.380;2024-02-21T13:55:08;7.50;;;2.10;;
69008;SDS011;56065;52.472;13.380;2024-02-21T13:57:37;9.40;;;2.57;;
69008;SDS011;56065;52.472;13.380;2024-02-21T14:00:03;9.48;;;2.60;;
69008;SDS011;56065;52.472;13.380;2024-02-21T14:02:29;9.30;;;2.25;;
69008;SDS011;56065;52.472;13.380;2024-02-21T14:04:55;7.43;;;2.25;;
69008;SDS011;56065;52.472;13.380;2024-02-21T14:07:21;7.47;;;1.57;;
69008;SDS011;56065;52.472;13.380;2024-02-21T14:09:46;8.73;;;1.77;;
69008;SDS011;56065;52.472;13.380;2024-02-21T14:12:12;7.63;;;2.30;;
69008;SDS011;56065;52.472;13.380;2024-02-21T14:14:37;9.23;;;2.05;;
69008;SDS011;56065;52.472;13.380;2024-02-21T14:17:03;12.37;;;2.33;;
69008;SDS011;56065;52.472;13.380;2024-02-21T14:19:29;9.20;;;1.90;;
69008;SDS011;56065;52.472;13.380;2024-02-21T14:21:54;10.70;;;2.30;;
69008;SDS011;56065;52.472;13.380;2024-02-21T14:24:20;6.88;;;2.20;;
69008;SDS011;56065;52.472;13.380;2024-02-21T14:26:45;7.57;;;1.90;;